Brumley, Texas
Current Conditions -  °F | °C
As of 4:15 AM on Saturday 22 Nov 2014 (Local Time) from KOSA Reporting Station
Overcast Overcast  
Wind Chill: 56°   Ceiling: 6000
Heat Index: 56°   Visibility: 10mi
Dew Point: 53°   Wind: 9mph
Humidity: 89%   Direction: 130°SE
Pressure: 30.15"   Gusts: NA
Location:  32.9352°N, 94.9553°W
Report Text: KOSA 221015Z AUTO 13008KT 10SM SCT026 BKN060 OVC095 14/12 A3015 RMK AO1 T01350117
Loading
Personal Weather Stations






























Interactive Weather Map New forecast layout! Learn more

10-Day Weather Forecast

Advertisements
Track Severe Weather on mobile